Main page
METAR-TAF:

METAR-TAF

Airports :

Sheridan County Airport

Sheridan, Wyoming, United States

latitude: 44-46-10N, longitude: 106-58-08W, elevation: 4018 ft

Current weather observation

The report was made 41 minutes ago, at 13:53 UTC
Calm wind
Temperature 32°F
Humidity 74%
Pressure 30.13 in. Hg
Visibility: 10 miles
Clear sky

METAR: KSHR 211353Z AUTO 00000KT 10SM CLR 00/M04 A3013 RMK AO2 SLP224 T00001039

Time: 08:34 (14:34 UTC)

Forecast

The report was made 3 hours and 12 minutes ago, at 11:22 UTC
Forecast valid from 21 at 12 UTC to 22 at 12 UTC
Wind 5 mph from variable directions
Visibility: 6 miles
Few clouds at a height of 25000 ft
From 21 at 1600 UTC
Wind 7 mph from the Southeast
Visibility: 6 miles
Broken clouds at a height of 20000 ft
From 22 at 0500 UTC
Wind 14 mph from the Northwest with gusts up to 25 mph
Visibility: 6 miles
Broken clouds at a height of 8000 ft
showers in vicinity,

TAF: KSHR 211122Z 2112/2212 VRB04KT P6SM FEW250 FM211600 14006KT P6SM BKN200 FM220500 31012G22KT P6SM VCSH BKN080

Weather observations and forecasts of more than 4000 airports (METAR and TAF reports).

The available stations are represented by yellow and red dots on the map.

Hover mouse over dot to see the name of the station.

Then click to see weather observations and forecasts.

To change the map : click on the green buttons with a black cross to zoom in, on the green button with a dash to zoom out, or on the green arrows for adjacent maps.


METAR-TAF: